Time;durP1;ratioP1;P1;durP2;ratioP2;P2;SDS_P1;SDS_P2;PMS_P1;PMS_P2;Temp;Humidity;BMP_temperature;BMP_pressure;BME280_temperature;BME280_humidity;BME280_pressure;Samples;Min_cycle;Max_cycle;Signal;HPM_P1;HPM_P2
2022/01/24 00:01:43;;;;;;;3.90;3.57;;;6.60;99.90;;;;;;5020693;28;20477;-86
2022/01/24 00:04:10;;;;;;;3.07;2.80;;;6.70;99.90;;;;;;5017986;28;20465;-83
2022/01/24 00:06:37;;;;;;;4.90;3.40;;;6.70;99.90;;;;;;5018507;28;20484;-84
2022/01/24 00:09:05;;;;;;;3.07;2.77;;;6.60;99.90;;;;;;5017786;28;22055;-85
2022/01/24 00:11:46;;;;;;;3.07;2.73;;;6.50;99.90;;;;;;5018920;28;20494;-82
2022/01/24 00:17:04;;;;;;;2.83;2.53;;;6.60;99.90;;;;;;5021121;28;20846;-83
2022/01/24 00:28:04;;;;;;;3.73;3.43;;;6.90;99.80;;;;;;5018825;28;20465;-85
2022/01/24 00:30:31;;;;;;;2.87;2.67;;;6.90;99.90;;;;;;5017151;28;20478;-83
2022/01/24 00:32:58;;;;;;;4.90;3.10;;;6.80;99.90;;;;;;5025010;28;20658;-85
2022/01/24 00:35:25;;;;;;;3.83;3.53;;;6.80;99.90;;;;;;5019302;28;20508;-83
2022/01/24 00:37:59;;;;;;;3.50;3.20;;;6.90;99.90;;;;;;5020212;28;20486;-83
2022/01/24 00:40:27;;;;;;;3.97;3.57;;;6.80;99.90;;;;;;5020947;28;20492;-84
2022/01/24 00:42:57;;;;;;;3.80;3.40;;;6.90;99.90;;;;;;5033999;28;20457;-84
2022/01/24 00:48:35;;;;;;;5.20;4.40;;;6.80;99.90;;;;;;5039535;28;20465;-83
2022/01/24 00:56:11;;;;;;;3.80;3.40;;;6.60;99.90;;;;;;5023683;28;20481;-84
2022/01/24 00:58:38;;;;;;;3.20;2.90;;;6.50;99.90;;;;;;5020148;28;20457;-83
2022/01/24 01:01:05;;;;;;;3.93;3.20;;;6.60;99.90;;;;;;5026126;28;20893;-82
2022/01/24 01:03:32;;;;;;;5.70;3.30;;;6.80;99.90;;;;;;5028340;28;20963;-83
2022/01/24 01:06:07;;;;;;;3.90;3.50;;;6.90;99.90;;;;;;5029367;28;20458;-85
2022/01/24 01:19:44;;;;;;;3.53;3.23;;;6.90;99.90;;;;;;5037751;28;20437;-85
2022/01/24 01:22:11;;;;;;;3.20;2.90;;;7.10;99.90;;;;;;5030185;28;20474;-85
2022/01/24 01:24:44;;;;;;;3.40;3.10;;;7.10;99.90;;;;;;5028165;28;20469;-84
2022/01/24 01:27:19;;;;;;;3.00;2.70;;;6.90;99.90;;;;;;5028607;28;20986;-82
2022/01/24 01:32:40;;;;;;;2.70;2.50;;;6.80;99.90;;;;;;5026763;28;20477;-85
2022/01/24 01:35:14;;;;;;;2.80;2.60;;;6.80;99.90;;;;;;5030167;28;20461;-83
2022/01/24 01:54:19;;;;;;;2.67;2.47;;;6.90;99.90;;;;;;5028291;28;20488;-85
2022/01/24 01:56:46;;;;;;;2.77;2.33;;;6.90;99.90;;;;;;5031226;28;20492;-84
2022/01/24 01:59:13;;;;;;;2.87;2.60;;;6.80;99.90;;;;;;5024801;28;20492;-84
2022/01/24 02:01:39;;;;;;;1.97;1.87;;;6.80;99.90;;;;;;5034872;28;20504;-82
2022/01/24 02:04:06;;;;;;;3.93;2.40;;;6.60;99.90;;;;;;5029527;28;20454;-83
2022/01/24 02:06:33;;;;;;;2.90;2.63;;;6.50;99.90;;;;;;5030398;28;20865;-84
2022/01/24 02:09:03;;;;;;;3.47;2.30;;;6.40;99.90;;;;;;5028976;28;20453;-85
2022/01/24 02:11:30;;;;;;;2.37;2.17;;;6.40;99.90;;;;;;5029379;28;20480;-84
2022/01/24 02:14:02;;;;;;;2.40;2.20;;;6.40;99.90;;;;;;5023178;28;20484;-83
2022/01/24 02:16:41;;;;;;;2.60;1.90;;;6.50;99.90;;;;;;5019689;28;20517;-82
2022/01/24 02:19:20;;;;;;;2.90;2.00;;;6.80;99.90;;;;;;5020163;28;20458;-83
2022/01/24 02:24:38;;;;;;;3.90;2.33;;;6.70;99.90;;;;;;5025939;28;20460;-80
2022/01/24 02:27:06;;;;;;;2.10;1.90;;;6.70;99.90;;;;;;5036177;28;20467;-83
2022/01/24 02:29:52;;;;;;;2.63;2.43;;;6.70;99.90;;;;;;5035140;28;20460;-82
2022/01/24 02:32:19;;;;;;;2.13;2.03;;;6.90;99.90;;;;;;5030782;28;20479;-82
2022/01/24 02:34:49;;;;;;;3.63;2.40;;;6.80;99.90;;;;;;5048534;28;20485;-84
2022/01/24 02:37:19;;;;;;;2.47;2.27;;;6.80;99.90;;;;;;5031736;28;20553;-80
2022/01/24 02:39:55;;;;;;;6.47;2.57;;;6.70;99.90;;;;;;5033198;28;20456;-80
2022/01/24 02:51:03;;;;;;;4.00;2.20;;;6.70;99.90;;;;;;5043217;28;20552;-83
2022/01/24 02:53:32;;;;;;;2.33;2.13;;;6.80;99.90;;;;;;5042917;28;20439;-87
2022/01/24 02:55:59;;;;;;;2.00;1.90;;;6.60;99.90;;;;;;5056848;28;20517;-85
2022/01/24 03:00:56;;;;;;;1.93;1.77;;;6.60;99.90;;;;;;4983192;28;20495;-85
2022/01/24 03:03:23;;;;;;;2.37;2.17;;;6.70;99.90;;;;;;4975522;28;20453;-85
2022/01/24 03:05:50;;;;;;;1.93;1.83;;;6.70;99.90;;;;;;4989687;28;20452;-85
2022/01/24 03:08:20;;;;;;;2.20;2.10;;;6.50;99.90;;;;;;4975122;28;20455;-85
2022/01/24 03:10:48;;;;;;;3.77;1.73;;;6.60;99.90;;;;;;4994201;28;20472;-83
2022/01/24 03:15:45;;;;;;;2.17;1.83;;;6.60;99.90;;;;;;4989275;28;20481;-84
2022/01/24 03:18:12;;;;;;;1.93;1.80;;;6.60;99.90;;;;;;4986339;28;20476;-84
2022/01/24 03:20:39;;;;;;;2.03;1.83;;;6.40;99.90;;;;;;4975533;28;20503;-85
2022/01/24 03:23:06;;;;;;;1.70;1.57;;;6.50;99.90;;;;;;4971153;28;20480;-84
2022/01/24 03:25:33;;;;;;;2.37;2.17;;;6.50;99.90;;;;;;4981745;28;20440;-83
2022/01/24 03:28:00;;;;;;;2.43;2.23;;;6.60;99.90;;;;;;4988075;28;20452;-85
2022/01/24 03:30:26;;;;;;;3.80;2.50;;;6.50;99.90;;;;;;4986508;28;20475;-85
2022/01/24 03:32:53;;;;;;;3.67;2.40;;;6.40;99.90;;;;;;4975037;28;20448;-84
2022/01/24 03:35:20;;;;;;;2.17;2.07;;;6.50;99.90;;;;;;4973922;28;20468;-85
2022/01/24 03:37:47;;;;;;;1.70;1.60;;;6.60;99.90;;;;;;4959772;28;20489;-83
2022/01/24 03:40:13;;;;;;;2.53;2.33;;;6.80;99.90;;;;;;4958817;28;21034;-82
2022/01/24 03:42:40;;;;;;;2.23;2.03;;;6.80;99.90;;;;;;4969784;28;20463;-85
2022/01/24 03:45:10;;;;;;;2.20;2.10;;;6.60;99.90;;;;;;4973378;28;20457;-84
2022/01/24 03:50:07;;;;;;;2.40;2.20;;;6.50;99.90;;;;;;4970860;28;20466;-84
2022/01/24 03:52:34;;;;;;;2.23;2.00;;;6.60;99.90;;;;;;4959569;28;20500;-85
2022/01/24 03:55:03;;;;;;;2.33;2.13;;;6.70;99.90;;;;;;4959843;28;20475;-83
2022/01/24 03:57:30;;;;;;;2.50;2.30;;;6.80;99.90;;;;;;4960663;28;20591;-82
2022/01/24 03:59:57;;;;;;;2.27;2.00;;;6.80;99.90;;;;;;4916724;28;1254424;-84
2022/01/24 04:02:27;;;;;;;2.47;2.13;;;6.70;99.90;;;;;;4971074;28;20201;-85
2022/01/24 04:04:54;;;;;;;3.00;2.53;;;6.60;99.90;;;;;;4989614;28;20458;-85
2022/01/24 04:07:21;;;;;;;2.10;2.00;;;6.70;99.90;;;;;;5005844;28;20469;-86
2022/01/24 04:09:49;;;;;;;2.30;2.10;;;6.70;99.90;;;;;;4988779;28;21225;-85
2022/01/24 04:12:16;;;;;;;2.93;2.40;;;6.70;99.90;;;;;;4993023;28;20470;-85
2022/01/24 04:22:36;;;;;;;1.80;1.70;;;6.60;99.90;;;;;;4979604;28;20483;-83
2022/01/24 04:25:05;;;;;;;2.43;2.33;;;6.60;99.90;;;;;;4979042;28;20496;-84
2022/01/24 04:27:32;;;;;;;2.83;2.50;;;6.50;99.90;;;;;;4975603;28;20467;-84
2022/01/24 04:29:59;;;;;;;2.90;1.90;;;6.60;99.90;;;;;;4972043;28;20469;-81
2022/01/24 04:32:26;;;;;;;4.47;2.20;;;6.60;99.90;;;;;;4978086;28;20482;-82
2022/01/24 04:34:53;;;;;;;2.83;2.20;;;6.80;99.90;;;;;;4982427;28;21108;-83
2022/01/24 04:37:20;;;;;;;2.23;2.03;;;6.70;99.90;;;;;;4978587;28;20590;-83
2022/01/24 04:39:48;;;;;;;4.77;2.27;;;6.90;99.90;;;;;;4968792;28;20460;-84
2022/01/24 04:42:24;;;;;;;2.20;2.00;;;6.70;99.90;;;;;;4965432;28;20550;-83
2022/01/24 04:45:11;;;;;;;2.50;2.30;;;6.60;99.90;;;;;;4967302;28;21950;-84
2022/01/24 04:51:15;;;;;;;2.57;2.37;;;6.70;99.90;;;;;;4971673;28;20481;-83
2022/01/24 04:56:03;;;;;;;3.00;2.73;;;6.70;99.90;;;;;;4962739;28;20459;-85
2022/01/24 04:58:31;;;;;;;2.90;2.70;;;6.60;99.90;;;;;;4968764;28;20495;-84
2022/01/24 05:00:57;;;;;;;2.80;2.50;;;6.40;99.90;;;;;;4968951;28;20499;-84
2022/01/24 05:03:24;;;;;;;4.20;2.50;;;6.60;99.90;;;;;;4977384;28;20460;-83
2022/01/24 05:05:52;;;;;;;3.20;2.90;;;6.60;99.90;;;;;;4986869;28;20462;-84
2022/01/24 05:08:19;;;;;;;2.63;2.43;;;6.60;99.90;;;;;;4973947;28;20455;-83
2022/01/24 05:11:00;;;;;;;2.50;2.40;;;6.70;99.90;;;;;;4975288;28;20478;-83
2022/01/24 05:24:28;;;;;;;2.50;2.30;;;6.70;99.90;;;;;;4978152;28;20514;-84
2022/01/24 05:26:56;;;;;;;2.97;2.77;;;6.70;99.90;;;;;;4980574;28;20467;-85
2022/01/24 05:29:22;;;;;;;2.10;2.00;;;6.70;99.90;;;;;;4979333;28;20455;-84
2022/01/24 05:31:49;;;;;;;2.90;2.70;;;6.60;99.90;;;;;;4974678;28;20490;-86
2022/01/24 05:34:16;;;;;;;2.57;2.37;;;6.70;99.90;;;;;;4976569;28;20463;-86
2022/01/24 05:36:43;;;;;;;3.30;2.70;;;6.70;99.90;;;;;;4973771;28;20838;-85
2022/01/24 05:39:11;;;;;;;3.30;2.80;;;6.60;99.90;;;;;;4994700;28;20576;-83
2022/01/24 05:41:39;;;;;;;4.07;2.60;;;6.50;99.90;;;;;;4980154;28;20483;-83
2022/01/24 05:44:06;;;;;;;4.27;2.30;;;6.60;99.90;;;;;;4968580;28;20472;-83
2022/01/24 05:46:34;;;;;;;2.47;2.27;;;6.50;99.90;;;;;;4975920;28;20452;-85
2022/01/24 05:49:02;;;;;;;4.27;2.80;;;6.50;99.90;;;;;;4962578;28;20926;-84
2022/01/24 05:51:30;;;;;;;2.30;2.10;;;6.50;99.90;;;;;;4978229;28;20993;-83
2022/01/24 05:53:57;;;;;;;3.27;2.60;;;6.30;99.90;;;;;;4972806;28;20505;-85
2022/01/24 05:56:24;;;;;;;5.70;2.90;;;6.50;99.90;;;;;;4979456;28;20794;-84
2022/01/24 05:58:51;;;;;;;4.80;3.03;;;6.50;99.90;;;;;;4973986;28;20491;-86
2022/01/24 06:01:18;;;;;;;2.87;2.67;;;6.40;99.90;;;;;;4973054;28;20591;-84
2022/01/24 06:03:45;;;;;;;3.70;3.00;;;6.40;99.90;;;;;;4978944;28;21046;-85
2022/01/24 06:06:12;;;;;;;4.73;2.80;;;6.30;99.90;;;;;;4976131;28;20842;-84
2022/01/24 06:08:39;;;;;;;3.03;2.70;;;6.30;99.90;;;;;;4972443;28;20459;-84
2022/01/24 06:11:06;;;;;;;4.60;2.90;;;6.30;99.90;;;;;;4971249;28;20553;-84
2022/01/24 06:13:33;;;;;;;15.93;3.13;;;6.30;99.90;;;;;;4979387;28;20463;-82
2022/01/24 06:16:00;;;;;;;3.10;2.37;;;6.30;99.90;;;;;;4978545;28;20471;-85
2022/01/24 06:18:26;;;;;;;3.53;3.13;;;6.30;99.90;;;;;;4969846;28;21050;-83
2022/01/24 06:20:54;;;;;;;3.53;3.23;;;6.40;99.90;;;;;;4967890;28;20483;-85
2022/01/24 06:23:20;;;;;;;3.50;2.67;;;6.30;99.90;;;;;;4962875;28;21178;-83
2022/01/24 06:25:47;;;;;;;3.90;3.30;;;6.30;99.90;;;;;;4962650;28;20535;-83
2022/01/24 06:28:14;;;;;;;3.33;3.03;;;6.30;99.90;;;;;;4959506;28;21413;-85
2022/01/24 06:30:44;;;;;;;4.47;2.97;;;6.20;99.90;;;;;;4967339;28;20487;-84
2022/01/24 06:33:12;;;;;;;3.30;3.00;;;6.20;99.90;;;;;;4966885;28;20546;-85
2022/01/24 06:35:39;;;;;;;4.60;3.30;;;6.40;99.90;;;;;;4972749;28;20498;-87
2022/01/24 06:38:06;;;;;;;3.80;3.50;;;6.40;99.90;;;;;;4968690;28;20499;-84
2022/01/24 06:40:32;;;;;;;6.47;4.13;;;6.40;99.90;;;;;;4969028;28;21007;-83
2022/01/24 06:42:59;;;;;;;3.83;3.43;;;6.40;99.90;;;;;;4975625;28;20474;-85
2022/01/24 06:45:26;;;;;;;7.03;4.40;;;6.20;99.90;;;;;;4974001;28;20459;-83
2022/01/24 06:47:53;;;;;;;10.10;5.20;;;6.30;99.90;;;;;;4978305;28;20466;-82
2022/01/24 06:50:20;;;;;;;5.90;4.13;;;6.20;99.90;;;;;;4986351;28;20484;-84
2022/01/24 06:52:48;;;;;;;8.67;3.73;;;6.00;99.90;;;;;;4974968;28;20466;-85
2022/01/24 06:55:15;;;;;;;5.97;3.73;;;6.00;99.90;;;;;;4984152;28;20964;-83
2022/01/24 06:57:43;;;;;;;6.67;3.77;;;5.90;99.90;;;;;;4976784;28;20488;-83
2022/01/24 07:00:11;;;;;;;5.73;3.33;;;5.80;99.90;;;;;;4980143;28;20467;-84
2022/01/24 07:02:38;;;;;;;8.13;4.23;;;5.80;99.90;;;;;;4981616;28;20463;-85
2022/01/24 07:05:06;;;;;;;5.20;3.77;;;5.80;99.90;;;;;;4978832;28;20529;-86
2022/01/24 07:07:33;;;;;;;7.50;4.87;;;5.90;99.90;;;;;;4969911;28;20608;-86
2022/01/24 07:10:00;;;;;;;5.33;3.83;;;5.90;99.90;;;;;;4975355;28;20464;-85
2022/01/24 07:12:47;;;;;;;5.30;3.77;;;5.90;99.90;;;;;;4980232;28;20471;-85
2022/01/24 07:15:16;;;;;;;6.90;3.80;;;5.80;99.90;;;;;;4975920;28;20460;-86
2022/01/24 07:18:11;;;;;;;8.57;4.00;;;5.90;99.90;;;;;;4976183;28;20479;-85
2022/01/24 07:20:36;;;;;;;4.77;3.43;;;6.10;99.90;;;;;;4972698;28;20712;-84
2022/01/24 07:23:03;;;;;;;4.70;3.43;;;6.20;99.90;;;;;;4975514;28;20539;-84
2022/01/24 07:25:30;;;;;;;5.70;3.40;;;6.00;99.90;;;;;;4971218;28;20459;-83
2022/01/24 07:27:59;;;;;;;7.60;4.00;;;6.00;99.90;;;;;;4974963;28;22040;-84
2022/01/24 07:30:27;;;;;;;6.50;4.13;;;5.90;99.90;;;;;;4976498;28;20512;-83
2022/01/24 07:32:54;;;;;;;6.20;5.00;;;5.90;99.90;;;;;;4981831;28;20587;-85
2022/01/24 07:35:21;;;;;;;5.00;4.00;;;6.00;99.90;;;;;;4991710;28;20521;-84
2022/01/24 07:37:51;;;;;;;7.47;5.00;;;6.20;99.90;;;;;;4996809;28;20495;-84
2022/01/24 07:40:23;;;;;;;8.33;7.63;;;6.20;99.90;;;;;;4977008;28;20481;-83
2022/01/24 07:43:09;;;;;;;5.07;4.57;;;6.10;99.90;;;;;;4985560;28;20458;-85
2022/01/24 07:45:38;;;;;;;4.63;4.00;;;6.10;99.90;;;;;;4978026;28;20458;-84
2022/01/24 07:48:07;;;;;;;3.97;3.57;;;6.00;99.90;;;;;;4976573;28;20464;-83
2022/01/24 07:50:37;;;;;;;4.63;4.23;;;6.30;99.90;;;;;;4974356;28;20487;-85
2022/01/24 07:53:06;;;;;;;5.37;4.87;;;6.30;99.90;;;;;;4982446;28;20488;-86
2022/01/24 07:55:33;;;;;;;6.60;6.00;;;6.30;99.90;;;;;;4991968;28;20470;-86
2022/01/24 07:58:00;;;;;;;7.40;6.70;;;6.20;99.90;;;;;;4994815;28;20490;-85
2022/01/24 08:00:27;;;;;;;7.43;6.20;;;6.20;99.90;;;;;;4990205;28;20475;-85
2022/01/24 08:02:57;;;;;;;5.80;4.50;;;6.10;99.90;;;;;;4979676;28;20448;-85
2022/01/24 08:05:25;;;;;;;4.50;4.10;;;6.10;99.90;;;;;;4994923;28;20453;-80
2022/01/24 08:07:52;;;;;;;4.60;4.20;;;6.20;99.90;;;;;;4990453;28;20530;-83
2022/01/24 08:10:19;;;;;;;6.83;5.00;;;6.40;99.90;;;;;;4997984;28;20471;-84
2022/01/24 08:12:46;;;;;;;5.30;4.80;;;6.50;99.90;;;;;;4981611;28;20467;-84
2022/01/24 08:15:17;;;;;;;5.03;4.63;;;6.40;99.90;;;;;;4979633;28;20456;-83
2022/01/24 08:17:44;;;;;;;5.33;4.67;;;6.40;99.90;;;;;;4982453;28;20471;-83
2022/01/24 08:20:13;;;;;;;5.00;4.50;;;6.50;99.90;;;;;;4978441;28;20537;-85
2022/01/24 08:23:00;;;;;;;8.00;4.97;;;6.30;99.90;;;;;;4987465;28;20988;-82
2022/01/24 08:25:27;;;;;;;6.60;4.67;;;6.50;99.90;;;;;;4983099;28;20459;-83
2022/01/24 08:27:55;;;;;;;4.83;4.43;;;6.70;99.90;;;;;;4983519;28;20455;-83
2022/01/24 08:30:26;;;;;;;6.63;4.93;;;6.70;99.90;;;;;;4986584;28;20509;-85
2022/01/24 08:32:53;;;;;;;5.20;4.70;;;6.90;99.90;;;;;;4975296;28;20481;-85
2022/01/24 08:35:21;;;;;;;6.30;5.70;;;6.80;99.90;;;;;;4977898;28;20457;-85
2022/01/24 08:37:50;;;;;;;4.83;4.33;;;6.80;99.90;;;;;;4986851;28;20460;-83
2022/01/24 08:40:25;;;;;;;6.40;5.20;;;6.70;99.90;;;;;;4984496;28;20957;-84
2022/01/24 08:43:02;;;;;;;5.47;4.97;;;6.70;99.90;;;;;;4982077;28;20451;-84
2022/01/24 08:45:48;;;;;;;5.30;4.80;;;6.70;99.90;;;;;;4983939;28;20456;-83
2022/01/24 08:48:17;;;;;;;5.03;4.60;;;6.60;99.90;;;;;;4977211;28;20916;-83
2022/01/24 08:50:45;;;;;;;5.67;5.20;;;6.50;99.90;;;;;;4975172;28;20489;-84
2022/01/24 08:53:12;;;;;;;6.13;5.53;;;6.60;99.90;;;;;;4987108;28;21068;-85
2022/01/24 08:55:40;;;;;;;6.97;6.40;;;6.50;99.90;;;;;;4979767;28;20471;-85
2022/01/24 08:58:11;;;;;;;6.80;5.83;;;6.60;99.90;;;;;;4985059;28;20551;-85
2022/01/24 09:00:37;;;;;;;8.33;5.87;;;6.60;99.90;;;;;;4997321;28;20487;-87
2022/01/24 09:03:05;;;;;;;6.13;5.53;;;6.60;99.90;;;;;;4998689;28;20530;-86
2022/01/24 09:05:35;;;;;;;8.50;6.43;;;6.70;99.90;;;;;;5001318;28;20484;-86
2022/01/24 09:08:05;;;;;;;7.10;6.03;;;6.80;99.90;;;;;;4981954;28;20462;-83
2022/01/24 09:10:35;;;;;;;6.10;5.50;;;6.60;99.90;;;;;;4969463;28;20545;-84
2022/01/24 09:13:02;;;;;;;7.60;6.00;;;6.90;99.90;;;;;;4986649;28;20904;-84
2022/01/24 09:15:29;;;;;;;10.27;5.80;;;7.00;99.90;;;;;;4979239;28;20520;-82
2022/01/24 09:17:55;;;;;;;6.20;4.70;;;7.00;99.90;;;;;;4985759;28;20454;-85
2022/01/24 09:20:23;;;;;;;6.53;5.20;;;7.20;99.90;;;;;;4972297;28;20484;-85
2022/01/24 09:22:50;;;;;;;6.90;5.30;;;7.10;99.90;;;;;;4977273;28;20566;-84
2022/01/24 09:25:19;;;;;;;5.80;5.30;;;7.10;99.90;;;;;;4973588;28;20544;-85
2022/01/24 09:27:47;;;;;;;7.50;5.50;;;7.10;99.90;;;;;;4973320;28;20464;-85
2022/01/24 09:30:17;;;;;;;7.87;5.70;;;7.00;99.90;;;;;;4973053;28;20468;-85
2022/01/24 09:32:45;;;;;;;6.30;4.87;;;6.70;99.90;;;;;;4979673;28;20469;-80
2022/01/24 09:35:12;;;;;;;5.80;4.70;;;6.80;99.90;;;;;;4977197;28;20456;-83
2022/01/24 09:37:40;;;;;;;6.17;5.00;;;7.00;99.90;;;;;;4982130;28;20462;-82
2022/01/24 09:40:09;;;;;;;7.30;5.00;;;6.90;99.90;;;;;;4976116;28;20504;-85
2022/01/24 09:42:36;;;;;;;7.53;5.20;;;6.70;99.90;;;;;;4975075;28;20460;-82
2022/01/24 09:45:03;;;;;;;8.27;5.60;;;6.80;99.90;;;;;;4972353;28;20460;-83
2022/01/24 09:47:34;;;;;;;7.27;5.27;;;6.90;99.90;;;;;;4971343;28;20829;-84
2022/01/24 09:50:02;;;;;;;13.10;5.43;;;6.80;99.90;;;;;;4970960;28;20464;-85
2022/01/24 09:52:29;;;;;;;7.00;5.20;;;6.80;99.90;;;;;;4970868;28;20464;-85
2022/01/24 09:54:56;;;;;;;8.10;5.07;;;7.10;99.90;;;;;;4976123;28;20970;-84
2022/01/24 09:57:23;;;;;;;5.20;4.80;;;6.90;99.90;;;;;;4970494;28;20457;-84
2022/01/24 09:59:51;;;;;;;8.23;5.30;;;6.90;99.90;;;;;;4973637;28;20499;-85
2022/01/24 10:02:18;;;;;;;5.63;5.03;;;7.00;99.90;;;;;;4976203;28;20542;-83
2022/01/24 10:04:45;;;;;;;5.40;4.90;;;6.80;99.90;;;;;;4972243;28;20468;-86
2022/01/24 10:07:15;;;;;;;7.00;5.30;;;6.60;99.90;;;;;;4982823;28;20444;-84
2022/01/24 10:09:44;;;;;;;6.80;4.80;;;7.10;99.90;;;;;;4990464;28;20447;-84
2022/01/24 10:12:33;;;;;;;6.20;5.70;;;7.20;99.90;;;;;;4990341;28;20536;-85
2022/01/24 10:17:53;;;;;;;5.13;4.73;;;7.30;99.90;;;;;;4984184;28;20454;-82
2022/01/24 10:20:21;;;;;;;5.93;5.40;;;7.10;99.90;;;;;;4988033;28;20492;-80
2022/01/24 10:23:07;;;;;;;6.47;5.53;;;7.10;99.90;;;;;;4994015;28;20527;-83
2022/01/24 10:25:47;;;;;;;5.93;5.40;;;7.20;99.90;;;;;;4994837;28;20452;-83
2022/01/24 10:28:22;;;;;;;6.73;6.00;;;7.20;99.90;;;;;;4989300;28;20464;-80
2022/01/24 10:31:05;;;;;;;5.23;4.83;;;6.90;99.90;;;;;;4973165;28;20892;-82
2022/01/24 10:33:49;;;;;;;6.37;5.50;;;6.90;99.90;;;;;;4988687;28;20461;-83
2022/01/24 10:36:42;;;;;;;6.23;5.40;;;6.90;99.90;;;;;;4979145;28;20444;-81
2022/01/24 10:45:22;;;;;;;6.63;5.93;;;7.20;99.90;;;;;;4975327;28;20453;-83
2022/01/24 10:48:03;;;;;;;6.30;5.80;;;7.00;99.90;;;;;;4971409;28;20545;-83
2022/01/24 10:50:44;;;;;;;6.40;5.20;;;6.90;99.90;;;;;;4974865;28;20483;-82
2022/01/24 10:53:44;;;;;;;10.77;9.50;;;7.10;99.90;;;;;;4978503;28;20960;-83
2022/01/24 10:56:43;;;;;;;4.30;4.00;;;6.80;99.90;;;;;;4976839;28;20459;-83
2022/01/24 10:59:11;;;;;;;5.60;5.00;;;7.20;99.90;;;;;;4973324;28;20556;-84
2022/01/24 11:01:53;;;;;;;4.73;4.33;;;7.20;99.90;;;;;;4970576;28;20508;-86
2022/01/24 11:04:24;;;;;;;3.50;3.20;;;7.30;99.90;;;;;;4973636;28;21276;-85
2022/01/24 11:06:55;;;;;;;5.73;5.00;;;7.50;99.90;;;;;;4971084;28;20468;-85
2022/01/24 11:09:26;;;;;;;5.80;4.87;;;7.50;99.90;;;;;;4971732;28;20526;-84
2022/01/24 11:11:55;;;;;;;5.10;4.50;;;7.40;99.90;;;;;;4968213;28;20575;-85
2022/01/24 11:14:25;;;;;;;3.27;2.97;;;7.40;99.90;;;;;;4970860;28;21159;-85
2022/01/24 11:16:53;;;;;;;2.67;2.40;;;7.50;99.90;;;;;;4972332;28;20452;-85
2022/01/24 11:19:33;;;;;;;2.70;2.50;;;7.50;99.90;;;;;;4972862;28;20486;-85
2022/01/24 11:22:05;;;;;;;4.47;3.00;;;7.40;99.90;;;;;;4972672;28;20490;-84
2022/01/24 11:24:50;;;;;;;3.50;3.20;;;7.20;99.90;;;;;;4974332;28;20459;-85
2022/01/24 11:27:34;;;;;;;4.00;3.00;;;7.10;99.90;;;;;;4972704;28;20448;-85
2022/01/24 11:30:07;;;;;;;3.47;3.00;;;7.10;99.90;;;;;;4972608;28;20461;-85
2022/01/24 11:32:42;;;;;;;3.80;3.50;;;7.00;99.90;;;;;;4975887;28;20455;-85
2022/01/24 11:35:09;;;;;;;2.67;2.47;;;6.90;99.90;;;;;;4975825;28;20464;-85
2022/01/24 11:37:45;;;;;;;5.80;2.87;;;7.20;99.90;;;;;;4970482;28;20998;-86
2022/01/24 11:40:18;;;;;;;4.00;2.80;;;7.30;99.90;;;;;;4978129;28;20494;-84
2022/01/24 11:42:47;;;;;;;2.70;2.50;;;7.10;99.90;;;;;;4975770;28;20531;-85
2022/01/24 11:45:43;;;;;;;3.00;2.80;;;6.90;99.90;;;;;;4974330;28;20872;-86
2022/01/24 11:48:20;;;;;;;3.90;2.90;;;6.80;99.90;;;;;;4973550;28;20463;-83
2022/01/24 11:51:11;;;;;;;6.13;2.90;;;6.60;99.90;;;;;;4976483;28;20497;-84
2022/01/24 11:53:44;;;;;;;2.90;2.70;;;6.90;99.90;;;;;;4979660;28;20466;-84
2022/01/24 11:56:27;;;;;;;2.93;2.73;;;7.00;99.90;;;;;;4975706;28;21052;-84
2022/01/24 11:59:18;;;;;;;3.27;3.07;;;7.20;99.90;;;;;;4973436;28;20562;-85
2022/01/24 12:01:51;;;;;;;3.50;3.20;;;7.40;99.90;;;;;;4976789;28;20486;-86
2022/01/24 12:04:49;;;;;;;3.27;2.83;;;7.10;99.90;;;;;;4972968;28;20463;-84
2022/01/24 12:07:29;;;;;;;3.03;2.73;;;7.50;99.90;;;;;;4979251;28;20454;-84
2022/01/24 12:10:22;;;;;;;6.63;2.70;;;7.40;99.90;;;;;;4977567;28;20455;-84
2022/01/24 12:13:26;;;;;;;3.13;2.60;;;7.40;99.90;;;;;;4977106;28;20482;-83
2022/01/24 12:16:04;;;;;;;4.73;3.20;;;7.30;99.90;;;;;;4975692;28;20866;-84
2022/01/24 12:18:33;;;;;;;4.30;3.90;;;7.30;99.90;;;;;;4988809;28;20439;-85
2022/01/24 12:21:05;;;;;;;5.00;4.60;;;7.30;99.90;;;;;;4988334;28;20471;-87
2022/01/24 12:23:46;;;;;;;3.47;3.27;;;7.10;99.90;;;;;;4986852;28;20459;-85
2022/01/24 12:26:42;;;;;;;4.00;3.70;;;7.10;99.90;;;;;;4973954;28;20459;-85
2022/01/24 12:29:22;;;;;;;4.73;4.40;;;7.40;99.90;;;;;;4975676;28;21041;-85
2022/01/24 12:31:50;;;;;;;4.80;4.40;;;7.40;99.90;;;;;;4974906;28;20486;-86
2022/01/24 12:34:39;;;;;;;3.87;3.53;;;7.00;99.90;;;;;;4979399;28;20490;-83
2022/01/24 12:37:29;;;;;;;5.60;3.90;;;7.10;99.90;;;;;;4976676;28;20822;-84
2022/01/24 12:40:06;;;;;;;4.60;4.17;;;7.10;99.90;;;;;;4974442;28;20495;-85
2022/01/24 12:42:56;;;;;;;3.90;3.60;;;7.20;99.90;;;;;;4977430;28;20463;-86
2022/01/24 12:48:31;;;;;;;3.70;3.40;;;7.20;99.90;;;;;;4969518;28;20466;-84
2022/01/24 12:50:58;;;;;;;3.83;3.63;;;7.10;99.90;;;;;;4973136;28;20484;-85
2022/01/24 12:53:25;;;;;;;4.00;3.70;;;7.10;99.90;;;;;;4976102;28;20484;-84
2022/01/24 12:56:04;;;;;;;4.47;3.80;;;7.20;99.90;;;;;;4978126;28;20467;-84
2022/01/24 12:58:41;;;;;;;3.87;3.43;;;7.10;99.90;;;;;;4979363;28;20456;-85
2022/01/24 13:01:26;;;;;;;4.90;4.40;;;7.20;99.90;;;;;;4978870;28;20482;-87
2022/01/24 13:03:57;;;;;;;4.53;4.13;;;7.10;99.90;;;;;;4977850;28;20522;-85
2022/01/24 13:06:27;;;;;;;7.33;4.27;;;6.90;99.90;;;;;;4975959;28;20511;-85
2022/01/24 13:09:01;;;;;;;4.07;3.57;;;6.90;99.90;;;;;;4976696;28;20476;-84
2022/01/24 13:11:30;;;;;;;4.13;3.83;;;7.00;99.90;;;;;;4970920;28;20950;-83
2022/01/24 13:14:34;;;;;;;4.37;4.07;;;7.00;99.90;;;;;;4968865;28;20460;-85
2022/01/24 13:22:49;;;;;;;4.77;4.30;;;7.00;99.90;;;;;;4974206;28;20961;-85
2022/01/24 13:25:25;;;;;;;4.70;4.40;;;7.20;99.90;;;;;;4974573;28;20467;-83
2022/01/24 13:27:56;;;;;;;4.37;4.07;;;7.30;99.90;;;;;;4977093;28;20944;-85
2022/01/24 13:30:38;;;;;;;4.73;4.17;;;7.30;99.90;;;;;;4983229;28;20538;-83
2022/01/24 13:33:07;;;;;;;5.63;4.70;;;7.40;99.90;;;;;;4971706;28;20467;-85
2022/01/24 13:35:40;;;;;;;5.17;4.67;;;7.20;99.90;;;;;;4982192;28;20527;-85
2022/01/24 13:38:09;;;;;;;5.07;3.97;;;7.30;99.90;;;;;;5010320;28;20472;-86
2022/01/24 13:40:53;;;;;;;4.37;4.07;;;7.30;99.90;;;;;;4976940;28;20490;-82
2022/01/24 13:43:40;;;;;;;5.33;5.03;;;7.20;99.90;;;;;;4965889;28;20471;-85
2022/01/24 13:46:08;;;;;;;6.67;3.83;;;7.10;99.90;;;;;;4974693;28;20466;-82
2022/01/24 13:48:46;;;;;;;4.47;4.17;;;7.10;99.90;;;;;;4972506;28;20476;-84
2022/01/24 13:51:19;;;;;;;5.00;4.30;;;7.20;99.90;;;;;;4983074;28;20487;-81
2022/01/24 13:53:53;;;;;;;4.10;3.77;;;7.30;99.90;;;;;;4992201;28;20443;-84
2022/01/24 13:56:41;;;;;;;5.20;4.80;;;7.30;99.90;;;;;;4978985;28;20469;-83
2022/01/24 13:59:42;;;;;;;4.90;4.40;;;7.20;99.90;;;;;;4972658;28;20790;-86
2022/01/24 14:02:15;;;;;;;5.33;4.83;;;7.10;99.90;;;;;;4972793;28;20487;-82
2022/01/24 14:04:52;;;;;;;5.50;5.00;;;7.10;99.90;;;;;;4971877;28;20962;-90
2022/01/24 14:07:23;;;;;;;9.33;5.70;;;7.20;99.90;;;;;;4981096;28;20467;-82
2022/01/24 14:10:03;;;;;;;5.63;5.17;;;7.10;99.90;;;;;;4967526;28;20452;-81
2022/01/24 14:12:46;;;;;;;6.47;5.33;;;7.30;99.90;;;;;;4977886;28;20472;-84
2022/01/24 14:15:34;;;;;;;6.17;5.67;;;7.40;99.90;;;;;;4972274;28;20592;-84
2022/01/24 14:20:55;;;;;;;5.33;4.73;;;7.30;99.90;;;;;;4964921;28;20572;-83
2022/01/24 14:23:37;;;;;;;5.87;5.33;;;7.40;99.90;;;;;;4955713;28;20820;-85
2022/01/24 14:26:19;;;;;;;5.33;4.87;;;7.30;99.90;;;;;;4972377;28;20460;-84
2022/01/24 14:28:48;;;;;;;5.37;4.97;;;7.30;99.90;;;;;;4981302;28;20467;-85
2022/01/24 14:31:16;;;;;;;8.20;5.07;;;7.40;99.90;;;;;;4980239;28;20462;-86
2022/01/24 14:33:45;;;;;;;5.10;4.70;;;7.40;99.90;;;;;;4981565;28;20476;-86
2022/01/24 14:36:16;;;;;;;4.47;4.17;;;7.40;99.90;;;;;;4981805;28;20463;-85
2022/01/24 14:39:11;;;;;;;6.27;5.13;;;7.40;99.90;;;;;;4980308;28;21673;-87
2022/01/24 14:41:48;;;;;;;5.93;5.43;;;7.10;99.90;;;;;;4974819;28;20492;-84
2022/01/24 14:47:05;;;;;;;4.90;4.50;;;7.30;99.90;;;;;;4975395;28;20465;-85
2022/01/24 14:49:36;;;;;;;5.80;5.30;;;7.40;99.90;;;;;;4974493;28;20455;-84
2022/01/24 14:52:09;;;;;;;5.17;4.80;;;7.40;99.90;;;;;;4977827;28;20472;-84
2022/01/24 14:54:37;;;;;;;5.90;5.27;;;7.30;99.90;;;;;;4974385;28;20452;-83
2022/01/24 14:57:08;;;;;;;6.60;5.90;;;7.20;99.90;;;;;;4982042;28;20474;-86
2022/01/24 14:59:38;;;;;;;5.67;5.10;;;7.10;99.90;;;;;;4977833;28;21008;-82
2022/01/24 15:02:05;;;;;;;4.50;4.10;;;7.00;99.90;;;;;;4972228;28;20489;-82
2022/01/24 15:04:32;;;;;;;6.30;5.73;;;7.20;99.90;;;;;;4971539;28;20463;-83
2022/01/24 15:06:58;;;;;;;6.07;5.47;;;7.10;99.90;;;;;;4969234;28;20478;-84
2022/01/24 15:09:28;;;;;;;6.17;5.67;;;7.20;99.90;;;;;;4987077;28;20466;-82
2022/01/24 15:11:58;;;;;;;6.17;5.57;;;7.20;99.90;;;;;;4973863;28;20832;-83
2022/01/24 15:14:33;;;;;;;5.97;5.50;;;7.00;99.90;;;;;;4974922;28;20447;-84
2022/01/24 15:27:42;;;;;;;6.70;6.10;;;7.30;99.90;;;;;;4973052;28;20466;-83
2022/01/24 15:30:10;;;;;;;5.93;5.43;;;7.30;99.90;;;;;;4974751;28;20467;-84